Time;durP1;ratioP1;P1;durP2;ratioP2;P2;SDS_P1;SDS_P2;PMS_P1;PMS_P2;Temp;Humidity;BMP_temperature;BMP_pressure;BME280_temperature;BME280_humidity;BME280_pressure;Samples;Min_cycle;Max_cycle;Signal;HPM_P1;HPM_P2
2021/05/21 04:37:52;;;;;;;4.60;3.55;;;;;;;8.87;73.51;97942.64;1847627;76;22304;-66
2021/05/21 04:40:19;;;;;;;7.22;3.00;;;;;;;8.90;72.92;97942.09;1818269;79;21366;-69
2021/05/21 04:42:46;;;;;;;7.22;3.15;;;;;;;9.00;72.72;97948.66;1818026;79;21222;-69
2021/05/21 04:45:15;;;;;;;5.37;3.10;;;;;;;9.12;72.54;97946.42;1818132;79;20953;-67
2021/05/21 04:47:43;;;;;;;3.75;2.87;;;;;;;9.24;72.49;97948.18;1818221;78;20973;-68
2021/05/21 04:50:29;;;;;;;4.50;3.08;;;;;;;9.39;71.44;97941.89;1812457;79;20978;-70
2021/05/21 04:52:56;;;;;;;4.35;3.00;;;;;;;9.56;70.52;97947.59;1812432;79;20965;-68
2021/05/21 04:55:24;;;;;;;4.30;2.87;;;;;;;9.67;70.20;97946.92;1812262;79;21066;-70
2021/05/21 04:57:51;;;;;;;7.10;3.15;;;;;;;9.76;69.50;97951.36;1812292;79;21488;-71
2021/05/21 05:00:20;;;;;;;3.72;3.17;;;;;;;9.81;69.07;97952.64;1812289;79;20942;-71
2021/05/21 05:02:46;;;;;;;6.65;2.67;;;;;;;9.85;68.98;97954.99;1812190;79;20993;-66
2021/05/21 05:05:13;;;;;;;5.33;2.80;;;;;;;9.89;68.83;97957.34;1812261;79;20886;-70
2021/05/21 05:07:41;;;;;;;5.22;3.00;;;;;;;9.95;68.90;97949.53;1812458;79;21413;-70
2021/05/21 05:10:10;;;;;;;9.60;2.95;;;;;;;10.03;68.55;97954.22;1812017;79;20950;-68
2021/05/21 05:12:37;;;;;;;5.35;3.15;;;;;;;10.12;68.76;97958.45;1812228;79;20986;-68
2021/05/21 05:15:07;;;;;;;3.37;2.72;;;;;;;10.22;68.48;97962.34;1812401;79;21487;-68
2021/05/21 05:17:34;;;;;;;3.25;2.92;;;;;;;10.29;67.85;97959.53;1812174;79;20902;-66
2021/05/21 05:20:01;;;;;;;4.35;2.90;;;;;;;10.34;67.06;97957.33;1812219;79;21090;-67
2021/05/21 05:22:30;;;;;;;4.25;2.70;;;;;;;10.37;67.01;97952.73;1812118;79;20942;-67
2021/05/21 05:24:57;;;;;;;6.95;2.80;;;;;;;10.42;66.56;97948.66;1812285;79;20954;-68
2021/05/21 05:27:25;;;;;;;6.00;2.80;;;;;;;10.50;66.50;97945.34;1812165;79;20882;-68
2021/05/21 05:29:52;;;;;;;5.35;2.25;;;;;;;10.58;66.43;97948.68;1812292;79;21353;-67
2021/05/21 05:32:19;;;;;;;3.83;2.33;;;;;;;10.69;66.40;97946.66;1812371;79;21333;-66
2021/05/21 05:34:46;;;;;;;4.20;2.25;;;;;;;10.79;66.44;97945.94;1812336;79;21424;-68
2021/05/21 05:37:14;;;;;;;5.95;2.98;;;;;;;10.93;66.55;97944.64;1812340;79;20875;-66
2021/05/21 05:39:43;;;;;;;4.40;2.50;;;;;;;11.09;66.70;97950.56;1812261;79;21460;-69
2021/05/21 05:42:10;;;;;;;4.17;2.45;;;;;;;11.22;66.19;97952.46;1812407;79;20938;-68
2021/05/21 05:44:38;;;;;;;4.45;2.65;;;;;;;11.35;65.23;97959.19;1812282;79;21070;-70
2021/05/21 05:47:05;;;;;;;3.77;3.10;;;;;;;11.47;64.15;97957.39;1812033;79;20875;-69
2021/05/21 05:49:32;;;;;;;3.92;2.90;;;;;;;11.53;64.37;97961.56;1810667;78;21065;-68
2021/05/21 05:51:59;;;;;;;4.08;2.60;;;;;;;11.58;64.39;97959.59;1809433;79;21088;-69
2021/05/21 05:54:29;;;;;;;3.17;2.47;;;;;;;11.63;64.77;97962.72;1809879;79;21631;-70
2021/05/21 05:56:56;;;;;;;4.58;2.10;;;;;;;11.69;63.80;97956.18;1811105;79;21144;-69
2021/05/21 05:59:25;;;;;;;3.37;1.85;;;;;;;11.74;61.75;97956.09;1811616;79;21337;-70
2021/05/21 06:01:52;;;;;;;3.85;2.20;;;;;;;11.79;61.03;97958.67;1811638;79;20990;-69
2021/05/21 06:04:18;;;;;;;5.50;2.27;;;;;;;11.84;61.15;97958.58;1811521;79;21000;-69
2021/05/21 06:06:47;;;;;;;4.17;2.20;;;;;;;11.89;61.32;97958.48;1811776;79;21401;-69
2021/05/21 06:09:14;;;;;;;4.50;2.37;;;;;;;11.95;61.80;97960.50;1811457;79;21018;-69
2021/05/21 06:11:42;;;;;;;3.15;2.02;;;;;;;12.02;62.26;97957.66;1811692;79;21410;-67
2021/05/21 06:14:09;;;;;;;10.58;2.65;;;;;;;12.09;62.26;97955.37;1811742;79;21048;-69
2021/05/21 06:16:36;;;;;;;4.17;2.08;;;;;;;12.18;62.43;97957.59;1811677;79;21377;-68
2021/05/21 06:19:05;;;;;;;3.05;1.82;;;;;;;12.27;61.77;97957.70;1811569;79;21449;-68
2021/05/21 06:21:32;;;;;;;3.98;1.82;;;;;;;12.35;61.04;97952.39;1811548;79;21244;-69
2021/05/21 06:24:00;;;;;;;3.40;2.33;;;;;;;12.44;60.93;97955.69;1810475;78;20958;-69
2021/05/21 06:26:33;;;;;;;3.75;2.20;;;;;;;12.52;60.73;97950.95;1799078;79;21057;-68
2021/05/21 06:28:58;;;;;;;4.05;2.10;;;;;;;12.61;61.22;97951.81;1812458;79;21563;-70
2021/05/21 06:31:25;;;;;;;2.83;1.98;;;;;;;12.70;60.84;97954.02;1817208;79;20990;-68
2021/05/21 06:33:52;;;;;;;7.55;1.98;;;;;;;12.82;60.74;97951.58;1817134;79;20974;-69
2021/05/21 06:36:20;;;;;;;3.80;2.12;;;;;;;12.93;60.84;97946.23;1817128;79;21558;-66
2021/05/21 06:38:47;;;;;;;5.53;2.50;;;;;;;13.03;60.32;97949.45;1813151;79;20930;-69
2021/05/21 06:41:20;;;;;;;4.78;2.60;;;;;;;13.13;59.01;97948.97;1817225;79;21029;-66
2021/05/21 06:43:47;;;;;;;5.75;2.17;;;;;;;13.20;59.40;97951.48;1817192;79;21081;-67
2021/05/21 06:46:15;;;;;;;3.37;2.20;;;;;;;13.25;58.48;97945.17;1808104;78;21333;-67
2021/05/21 06:48:51;;;;;;;4.30;2.00;;;;;;;13.30;59.46;97943.16;1757169;79;21487;-67
2021/05/21 06:51:19;;;;;;;2.85;2.08;;;;;;;13.37;59.39;97952.93;1800228;79;21087;-71
2021/05/21 06:53:46;;;;;;;2.62;1.98;;;;;;;13.45;57.13;97946.78;1801071;79;20984;-64
2021/05/21 06:56:15;;;;;;;2.50;2.00;;;;;;;13.50;57.60;97945.30;1800994;79;20940;-66
2021/05/21 06:58:43;;;;;;;2.92;1.98;;;;;;;13.57;57.48;97943.50;1800971;79;21056;-70
2021/05/21 07:01:11;;;;;;;4.80;1.80;;;;;;;13.64;55.14;97941.96;1767247;79;21529;-62
2021/05/21 07:03:40;;;;;;;2.83;1.95;;;;;;;13.68;54.76;97938.88;1733498;82;21561;-60
2021/05/21 07:06:07;;;;;;;3.62;1.92;;;;;;;13.77;55.90;97936.78;1735203;82;20981;-67
2021/05/21 07:08:36;;;;;;;2.75;2.22;;;;;;;13.87;55.22;97936.51;1735838;81;20936;-70
2021/05/21 07:11:05;;;;;;;4.95;2.25;;;;;;;13.92;55.33;97937.72;1765578;80;20980;-72
2021/05/21 07:13:34;;;;;;;2.65;2.08;;;;;;;13.96;54.77;97938.66;1766695;81;20992;-69
2021/05/21 07:16:02;;;;;;;3.72;2.75;;;;;;;14.02;55.61;97948.97;1767442;81;20893;-65
2021/05/21 07:18:30;;;;;;;3.58;2.70;;;;;;;14.13;55.22;97950.84;1767235;81;21008;-66
2021/05/21 07:21:02;;;;;;;4.37;3.20;;;;;;;14.18;55.34;97952.01;1767556;81;21519;-74
2021/05/21 07:23:27;;;;;;;3.98;3.00;;;;;;;14.23;55.58;97949.17;1766419;81;21080;-66
2021/05/21 07:25:56;;;;;;;5.30;3.58;;;;;;;14.32;56.29;97956.19;1775386;79;20885;-65
2021/05/21 07:28:25;;;;;;;4.83;3.52;;;;;;;14.37;56.09;97953.34;1775623;79;21514;-65
2021/05/21 07:30:52;;;;;;;5.65;3.50;;;;;;;14.44;56.05;97954.22;1762040;81;20921;-67
2021/05/21 07:33:20;;;;;;;9.78;3.65;;;;;;;14.50;55.27;97960.27;1767865;79;21129;-67
2021/05/21 07:35:50;;;;;;;4.58;2.87;;;;;;;14.53;55.64;97957.71;1752706;81;21069;-67
2021/05/21 07:38:24;;;;;;;5.95;3.60;;;;;;;14.61;56.71;97958.83;1767282;79;21457;-70
2021/05/21 07:40:57;;;;;;;4.65;3.20;;;;;;;14.75;55.84;97957.58;1736419;81;21042;-70
2021/05/21 07:43:27;;;;;;;6.12;2.90;;;;;;;14.87;54.65;97963.67;1764705;79;21038;-66
2021/05/21 07:45:57;;;;;;;4.85;2.90;;;;;;;14.93;53.09;97966.46;1765996;81;21410;-67
2021/05/21 07:48:26;;;;;;;6.12;3.17;;;;;;;14.93;52.23;97959.14;1765482;81;21520;-63
2021/05/21 07:50:55;;;;;;;4.90;2.60;;;;;;;14.90;50.75;97957.65;1773847;80;20892;-72
2021/05/21 07:53:23;;;;;;;3.70;2.80;;;;;;;14.85;51.45;97964.00;1811409;79;20836;-70
2021/05/21 07:55:51;;;;;;;2.85;2.55;;;;;;;14.89;51.80;97967.64;1811205;79;20954;-71
2021/05/21 07:58:18;;;;;;;5.05;3.00;;;;;;;14.99;49.90;97961.13;1789446;79;20954;-69
2021/05/21 08:00:46;;;;;;;6.17;2.70;;;;;;;15.03;50.03;97957.47;1778113;80;21070;-71
2021/05/21 08:03:19;;;;;;;6.70;2.60;;;;;;;15.03;51.97;97960.72;1777675;80;21502;-67
2021/05/21 08:05:50;;;;;;;3.60;2.00;;;;;;;15.19;51.71;97956.98;1777977;79;21037;-69
2021/05/21 08:08:22;;;;;;;4.95;2.40;;;;;;;15.38;50.36;97954.72;1801125;78;21041;-65
2021/05/21 08:10:55;;;;;;;4.55;2.40;;;;;;;15.55;50.10;97951.98;1800884;79;20928;-68
2021/05/21 08:13:24;;;;;;;3.12;2.80;;;;;;;15.71;48.87;97958.42;1807455;79;20965;-70
2021/05/21 08:16:03;;;;;;;3.95;2.22;;;;;;;15.79;47.53;97952.20;1798307;79;20950;-69
2021/05/21 08:18:32;;;;;;;5.12;2.47;;;;;;;15.85;47.40;97956.30;1777701;80;21040;-67
2021/05/21 08:21:00;;;;;;;4.25;2.30;;;;;;;15.97;47.89;97952.94;1789952;79;21021;-63
2021/05/21 08:23:27;;;;;;;3.77;2.37;;;;;;;16.08;48.41;97952.23;1811158;79;21058;-76
2021/05/21 08:25:55;;;;;;;4.03;2.62;;;;;;;16.19;47.43;97957.48;1810952;79;21459;-70
2021/05/21 08:28:26;;;;;;;3.35;2.30;;;;;;;16.23;46.95;97948.95;1810769;79;20931;-65
2021/05/21 08:30:53;;;;;;;3.60;2.22;;;;;;;16.29;46.76;97949.01;1810151;78;21084;-65
2021/05/21 08:33:22;;;;;;;4.17;2.55;;;;;;;16.41;47.59;97953.14;1819525;78;21100;-67
2021/05/21 08:35:50;;;;;;;3.95;2.30;;;;;;;16.56;47.20;97951.77;1787720;78;21047;-72
2021/05/21 08:38:19;;;;;;;3.08;2.12;;;;;;;16.63;46.89;97959.38;1809774;78;21039;-68
2021/05/21 08:40:50;;;;;;;5.70;2.58;;;;;;;16.70;46.49;97951.53;1811146;79;21037;-65
2021/05/21 08:43:27;;;;;;;3.85;1.98;;;;;;;16.84;47.71;97948.00;1809936;79;21428;-63
2021/05/21 08:45:57;;;;;;;2.92;1.90;;;;;;;16.94;45.98;97943.51;1776545;79;21028;-70
2021/05/21 08:48:25;;;;;;;2.22;1.98;;;;;;;16.86;45.53;97953.86;1810280;79;20954;-67
2021/05/21 08:50:53;;;;;;;5.12;1.80;;;;;;;16.74;44.51;97955.95;1810209;79;21061;-67
2021/05/21 08:53:22;;;;;;;3.02;2.00;;;;;;;16.55;45.71;97948.06;1814908;78;20961;-71
2021/05/21 08:55:51;;;;;;;3.05;1.80;;;;;;;16.53;46.26;97947.59;1830321;78;20972;-66
2021/05/21 08:58:20;;;;;;;4.10;1.90;;;;;;;16.63;46.28;97945.86;1830462;78;21504;-73
2021/05/21 09:00:48;;;;;;;3.87;2.00;;;;;;;16.69;46.69;97946.68;1829517;78;21585;-69
2021/05/21 09:03:49;;;;;;;2.98;2.00;;;;;;;16.72;44.89;97962.81;1784281;79;21666;-68
2021/05/21 09:06:20;;;;;;;2.62;2.17;;;;;;;16.66;43.92;97951.94;1736451;82;20962;-68
2021/05/21 09:08:57;;;;;;;3.65;2.15;;;;;;;16.64;44.06;97959.05;1737007;82;20906;-67
2021/05/21 09:11:34;;;;;;;3.10;1.92;;;;;;;16.75;43.74;97948.60;1736943;82;21045;-67
2021/05/21 09:14:08;;;;;;;2.80;1.77;;;;;;;16.84;42.28;97950.70;1737557;82;20930;-67
2021/05/21 09:16:38;;;;;;;3.50;1.57;;;;;;;16.84;42.77;97949.34;1752804;82;21203;-68
2021/05/21 09:19:11;;;;;;;2.20;1.60;;;;;;;16.70;42.33;97948.83;1751949;82;20980;-68
2021/05/21 09:22:11;;;;;;;2.60;1.60;;;;;;;16.58;43.60;97950.87;1751417;82;21511;-68
2021/05/21 09:24:40;;;;;;;3.25;1.57;;;;;;;16.67;44.50;97944.07;1749846;82;20921;-63
2021/05/21 09:27:09;;;;;;;2.35;1.40;;;;;;;16.95;44.18;97946.45;1722881;82;20976;-67
2021/05/21 09:29:51;;;;;;;1.92;1.60;;;;;;;17.20;44.60;97948.67;1752067;82;21731;-70
2021/05/21 09:32:31;;;;;;;2.83;1.67;;;;;;;17.32;41.38;97956.83;1722152;82;21602;-70
2021/05/21 09:35:15;;;;;;;3.75;1.80;;;;;;;17.32;41.84;97938.67;1752269;82;20980;-68
2021/05/21 09:37:51;;;;;;;2.80;1.52;;;;;;;17.39;43.19;97935.41;1752325;82;21475;-70
2021/05/21 09:40:29;;;;;;;3.10;1.80;;;;;;;17.50;43.42;97925.17;1752208;82;21486;-68
2021/05/21 09:43:04;;;;;;;2.42;1.90;;;;;;;17.64;41.57;97936.50;1752407;82;21528;-66
2021/05/21 09:45:33;;;;;;;;;;;;;;;17.71;42.49;97935.97;1755079;82;21456;-73
2021/05/21 09:48:08;;;;;;;2.30;1.55;;;;;;;17.93;42.20;97926.02;1730239;81;20229;-71
2021/05/21 09:50:41;;;;;;;2.17;1.55;;;;;;;18.13;41.61;97921.62;1672797;83;21089;-70
2021/05/21 09:53:20;;;;;;;2.22;1.55;;;;;;;18.21;41.27;97926.11;1724052;83;20946;-71
2021/05/21 09:56:02;;;;;;;4.20;1.90;;;;;;;18.12;41.09;97928.95;1723696;83;21603;-70
2021/05/21 09:58:37;;;;;;;2.70;1.87;;;;;;;17.91;41.48;97928.84;1737184;82;21046;-69
2021/05/21 10:01:22;;;;;;;2.77;1.70;;;;;;;17.65;41.93;97931.32;1713479;81;20997;-67
2021/05/21 10:03:57;;;;;;;2.12;1.60;;;;;;;17.49;42.48;97932.28;1731065;81;20938;-68
2021/05/21 10:06:30;;;;;;;4.37;1.50;;;;;;;17.38;42.96;97930.55;1718913;82;21527;-71
2021/05/21 10:09:02;;;;;;;3.67;1.87;;;;;;;17.36;44.06;97932.81;1711279;82;21090;-67
2021/05/21 10:11:33;;;;;;;2.70;1.77;;;;;;;17.32;43.08;97922.44;1707846;82;20972;-69
2021/05/21 10:14:00;;;;;;;3.62;1.90;;;;;;;17.36;43.73;97932.81;1707437;84;21586;-68
2021/05/21 10:16:27;;;;;;;6.65;1.70;;;;;;;17.41;43.37;97925.83;1707374;83;21121;-68
2021/05/21 10:18:54;;;;;;;5.08;1.67;;;;;;;17.38;43.12;97926.49;1706033;84;21551;-69
2021/05/21 10:21:23;;;;;;;3.70;1.92;;;;;;;17.25;43.40;97926.25;1706201;84;21173;-73
2021/05/21 10:24:03;;;;;;;3.08;1.67;;;;;;;17.14;42.70;97927.81;1686862;84;21642;-69
2021/05/21 10:26:34;;;;;;;3.72;1.80;;;;;;;17.02;43.21;97921.80;1706761;84;21161;-74
2021/05/21 10:29:12;;;;;;;3.45;1.80;;;;;;;16.90;42.47;97923.66;1706529;84;21446;-71
2021/05/21 10:31:39;;;;;;;2.22;1.35;;;;;;;16.75;43.29;97921.55;1704040;84;21603;-67
2021/05/21 10:34:23;;;;;;;2.00;1.50;;;;;;;16.73;44.20;97917.05;1708928;84;21582;-72
2021/05/21 10:37:30;;;;;;;1.60;1.40;;;;;;;16.78;44.40;97915.49;1708870;84;20958;-67
2021/05/21 10:40:27;;;;;;;3.35;1.57;;;;;;;16.79;43.48;97911.67;1754446;80;21464;-67
2021/05/21 10:43:25;;;;;;;2.65;1.95;;;;;;;16.79;43.21;97911.67;1734966;82;20939;-68
2021/05/21 10:46:17;;;;;;;3.15;1.90;;;;;;;16.92;43.13;97907.88;1768851;81;21477;-68
2021/05/21 10:49:02;;;;;;;2.67;1.72;;;;;;;17.12;43.95;97905.70;1736051;82;21096;-71
2021/05/21 10:51:49;;;;;;;1.82;1.55;;;;;;;17.36;44.22;97902.27;1770046;80;25028;-71
2021/05/21 10:54:35;;;;;;;2.70;1.70;;;;;;;17.59;42.81;97910.98;1734925;82;20927;-70
2021/05/21 10:57:20;;;;;;;6.92;2.08;;;;;;;17.76;42.52;97898.59;1769912;81;21563;-69
2021/05/21 10:59:55;;;;;;;5.25;2.30;;;;;;;18.04;43.61;97891.91;1735905;82;21481;-68
2021/05/21 11:02:26;;;;;;;6.78;2.17;;;;;;;18.26;40.73;97896.05;1770286;81;21389;-69
2021/05/21 11:04:55;;;;;;;6.25;2.08;;;;;;;18.22;41.07;97892.45;1713652;82;20981;-69
2021/05/21 11:07:40;;;;;;;2.17;1.75;;;;;;;18.30;40.91;97894.27;1748798;80;20942;-69
2021/05/21 11:13:15;;;;;;;5.92;2.17;;;;;;;18.57;41.13;97882.68;1725762;82;21671;-74
2021/05/21 11:15:47;;;;;;;8.53;2.25;;;;;;;18.63;39.22;97889.42;1735748;82;21095;-69
2021/05/21 11:18:20;;;;;;;5.28;2.22;;;;;;;18.55;40.94;97878.17;1735574;82;21034;-72
2021/05/21 11:21:08;;;;;;;7.50;2.25;;;;;;;18.51;41.01;97886.78;1735987;82;21034;-71
2021/05/21 11:23:48;;;;;;;3.80;2.17;;;;;;;18.60;41.03;97873.86;1748171;81;21104;-68
2021/05/21 11:26:22;;;;;;;3.85;1.87;;;;;;;18.90;42.15;97866.14;1752145;82;21128;-70
2021/05/21 11:28:55;;;;;;;3.80;2.07;;;;;;;19.16;40.05;97865.66;1752521;82;21027;-68
2021/05/21 11:31:25;;;;;;;3.35;1.90;;;;;;;19.21;39.86;97872.20;1752090;82;21027;-70
2021/05/21 11:33:53;;;;;;;2.95;1.62;;;;;;;19.11;39.39;97866.14;1752096;82;21602;-70
